Grandin, Missouri
Current Conditions -  °F | °C
As of 9:53 AM on Friday 28 Nov 2014 (Local Time) from KPOF Reporting Station
Clear Clear  
Wind Chill: 30°   Ceiling: Unl
Heat Index: 38°   Visibility: 10mi
Dew Point: 30°   Wind: 14mph
Humidity: 73%   Direction: 200°SSW
Pressure: 30.32"   Gusts: NA
Location:  36.83°N, 90.82°W
Report Text: KPOF 281553Z AUTO 20012KT 10SM CLR 03/M01 A3032 RMK AO2 SLP273 T00331011
Loading
Personal Weather Stations






























Interactive Weather Map New forecast layout! Learn more

10-Day Weather Forecast

Advertisements
Track Severe Weather on mobile